Time;durP1;ratioP1;P1;durP2;ratioP2;P2;SDS_P1;SDS_P2;PMS_P1;PMS_P2;Temp;Humidity;BMP_temperature;BMP_pressure;BME280_temperature;BME280_humidity;BME280_pressure;Samples;Min_cycle;Max_cycle;Signal;HPM_P1;HPM_P2
2021/09/14 00:00:07;;;;;;;;;;;;;;;-142.75;100.00;77074.25;5004404;28;19924;-80
2021/09/14 00:02:32;;;;;;;;;;;;;;;-142.75;100.00;77066.38;5009242;28;19921;-79
2021/09/14 00:04:57;;;;;;;;;;;;;;;-142.75;100.00;77060.47;5005406;28;19913;-79
2021/09/14 00:07:23;;;;;;;;;;;;;;;-142.75;100.00;77054.56;5007784;28;19920;-79
2021/09/14 00:09:48;;;;;;;;;;;;;;;-142.75;100.00;77054.56;5000170;28;19972;-78
2021/09/14 00:12:13;;;;;;;;;;;;;;;-142.75;100.00;77046.69;5005685;28;19956;-78
2021/09/14 00:14:38;;;;;;;;;;;;;;;-142.75;100.00;77052.59;5003984;28;20290;-78
2021/09/14 00:17:03;;;;;;;;;;;;;;;-142.75;100.00;77052.59;5002461;28;19914;-78
2021/09/14 00:19:29;;;;;;;;;;;;;;;-142.75;100.00;77052.59;5004075;28;19935;-79
2021/09/14 00:21:54;;;;;;;;;;;;;;;-142.75;100.00;77044.72;5008117;28;20008;-79
2021/09/14 00:24:19;;;;;;;;;;;;;;;-142.75;100.00;77038.81;5007787;28;19917;-79
2021/09/14 00:26:44;;;;;;;;;;;;;;;-142.75;100.00;77038.81;5006175;28;19936;-79
2021/09/14 00:29:09;;;;;;;;;;;;;;;-142.75;100.00;77050.63;5000894;28;19925;-78
2021/09/14 00:31:34;;;;;;;;;;;;;;;-142.75;100.00;77052.59;5005587;28;20011;-78
2021/09/14 00:34:00;;;;;;;;;;;;;;;-142.75;100.00;77044.72;5004786;28;19924;-79
2021/09/14 00:36:25;;;;;;;;;;;;;;;-142.75;100.00;77040.78;5005455;28;19924;-78
2021/09/14 00:38:50;;;;;;;;;;;;;;;-142.75;100.00;77032.91;5004444;28;19917;-78
2021/09/14 00:41:15;;;;;;;;;;;;;;;-142.75;100.00;77034.88;5006251;28;20303;-79
2021/09/14 00:43:41;;;;;;;;;;;;;;;-142.75;100.00;77023.06;5006118;28;19921;-80
2021/09/14 00:46:06;;;;;;;;;;;;;;;-142.75;100.00;77030.94;5006177;28;19990;-79
2021/09/14 00:48:31;;;;;;;;;;;;;;;-142.75;100.00;77030.94;5004985;28;20540;-79
2021/09/14 00:50:56;;;;;;;;;;;;;;;-142.75;100.00;77027.00;5003254;28;20379;-80
2021/09/14 00:53:22;;;;;;;;;;;;;;;-142.75;100.00;77030.94;5010505;28;20016;-78
2021/09/14 00:55:47;;;;;;;;;;;;;;;-142.75;100.00;77023.06;5006153;28;19914;-78
2021/09/14 00:58:13;;;;;;;;;;;;;;;-142.75;100.00;77013.22;5003221;28;19981;-78
2021/09/14 01:00:38;;;;;;;;;;;;;;;-142.75;100.00;77009.28;5003516;28;19913;-78
2021/09/14 01:03:03;;;;;;;;;;;;;;;-142.75;100.00;76997.47;5010942;28;19960;-81
2021/09/14 01:05:28;;;;;;;;;;;;;;;-142.75;100.00;76979.75;5002057;28;19914;-78
2021/09/14 01:07:54;;;;;;;;;;;;;;;-142.75;100.00;76977.78;5006349;28;19913;-79
2021/09/14 01:10:19;;;;;;;;;;;;;;;-142.75;100.00;76977.78;5007809;28;20402;-79
2021/09/14 01:12:46;;;;;;;;;;;;;;;-142.75;100.00;76975.81;5005989;28;19935;-78
2021/09/14 01:15:11;;;;;;;;;;;;;;;-142.75;100.00;76975.81;4999620;28;19955;-79
2021/09/14 01:17:36;;;;;;;;;;;;;;;-142.75;100.00;76975.81;5002568;28;20299;-80
2021/09/14 01:20:01;;;;;;;;;;;;;;;-142.75;100.00;76979.75;5004462;28;20052;-78
2021/09/14 01:22:27;;;;;;;;;;;;;;;-142.75;100.00;76983.69;4999055;28;19924;-79
2021/09/14 01:24:53;;;;;;;;;;;;;;;-142.75;100.00;76993.53;5006094;28;20277;-79
2021/09/14 01:27:18;;;;;;;;;;;;;;;-142.75;100.00;77011.25;5003443;28;19920;-78
2021/09/14 01:32:27;;;;;;;;;;;;;;;-142.75;100.00;77023.06;5002461;28;19928;-81
2021/09/14 01:34:52;;;;;;;;;;;;;;;-142.75;100.00;77032.91;5001989;28;19914;-78
2021/09/14 01:37:17;;;;;;;;;;;;;;;-142.75;100.00;77046.69;5005454;28;19913;-80
2021/09/14 01:39:43;;;;;;;;;;;;;;;-142.75;100.00;77062.44;5006296;28;19984;-79
2021/09/14 01:42:08;;;;;;;;;;;;;;;-142.75;100.00;77074.25;5003614;28;19913;-81
2021/09/14 01:44:33;;;;;;;;;;;;;;;-142.75;100.00;77082.13;5001577;28;19940;-79
2021/09/14 01:46:58;;;;;;;;;;;;;;;-142.75;100.00;77086.06;5004316;28;19956;-80
2021/09/14 01:49:23;;;;;;;;;;;;;;;-142.75;100.00;77078.19;5002644;28;19925;-79
2021/09/14 01:51:49;;;;;;;;;;;;;;;-142.75;100.00;77074.25;5005077;28;20445;-80
2021/09/14 01:54:14;;;;;;;;;;;;;;;-142.75;100.00;77086.06;5001972;28;19920;-78
2021/09/14 01:56:39;;;;;;;;;;;;;;;-142.75;100.00;77088.03;5005751;28;19918;-78
2021/09/14 01:59:05;;;;;;;;;;;;;;;-142.75;100.00;77080.16;5007080;28;19972;-79
2021/09/14 02:01:37;;;;;;;;;;;;;;;-142.75;100.00;77078.19;5004683;28;19926;-79
2021/09/14 02:04:16;;;;;;;;;;;;;;;-142.75;100.00;77078.19;5000766;28;20037;-79
2021/09/14 02:06:58;;;;;;;;;;;;;;;-142.75;100.00;77076.22;5000757;28;19948;-79
2021/09/14 03:00:36;;;;;;;;;;;;;;;-142.75;100.00;77121.50;5005055;28;20304;-79
2021/09/14 03:03:04;;;;;;;;;;;;;;;-142.75;100.00;77117.56;5006083;28;19913;-80
2021/09/14 03:05:30;;;;;;;;;;;;;;;-142.75;100.00;77121.50;5004736;28;20383;-79
2021/09/14 03:07:55;;;;;;;;;;;;;;;-142.75;100.00;77111.66;5001919;28;19914;-79
2021/09/14 03:10:20;;;;;;;;;;;;;;;-142.75;100.00;77119.53;5001813;28;20394;-80
2021/09/14 03:12:46;;;;;;;;;;;;;;;-142.75;100.00;77117.56;5001144;28;19914;-79
2021/09/14 03:15:11;;;;;;;;;;;;;;;-142.75;100.00;77113.63;5004202;28;19921;-79
2021/09/14 03:17:36;;;;;;;;;;;;;;;-142.75;100.00;77123.47;5003698;28;20008;-79
2021/09/14 03:20:01;;;;;;;;;;;;;;;-142.75;100.00;77121.50;5005352;28;19941;-78
2021/09/14 03:22:27;;;;;;;;;;;;;;;-142.75;100.00;77125.44;5003595;28;19914;-78
2021/09/14 03:24:52;;;;;;;;;;;;;;;-142.75;100.00;77125.44;5011193;28;19920;-79
2021/09/14 03:27:17;;;;;;;;;;;;;;;-142.75;100.00;77119.53;5006760;28;20045;-79
2021/09/14 03:29:42;;;;;;;;;;;;;;;-142.75;100.00;77125.44;4999962;28;20511;-78
2021/09/14 03:32:07;;;;;;;;;;;;;;;-142.75;100.00;77125.44;5007559;28;20333;-78
2021/09/14 03:34:33;;;;;;;;;;;;;;;-142.75;100.00;77123.47;5008978;28;19913;-80
2021/09/14 03:36:58;;;;;;;;;;;;;;;-142.75;100.00;77129.38;5007573;28;20306;-79
2021/09/14 03:39:23;;;;;;;;;;;;;;;-142.75;100.00;77135.28;5000999;28;19917;-79
2021/09/14 03:41:48;;;;;;;;;;;;;;;-142.75;100.00;77131.34;4998915;28;19925;-80
2021/09/14 03:44:13;;;;;;;;;;;;;;;-142.75;100.00;77125.44;4999323;28;20383;-79
2021/09/14 03:46:38;;;;;;;;;;;;;;;-142.75;100.00;77127.41;4999053;28;19948;-78
2021/09/14 03:49:04;;;;;;;;;;;;;;;-142.75;100.00;77123.47;5007338;28;19994;-79
2021/09/14 03:51:29;;;;;;;;;;;;;;;-142.75;100.00;77131.34;5003740;28;19917;-80
2021/09/14 03:53:54;;;;;;;;;;;;;;;-142.75;100.00;77129.38;5004620;28;19913;-79
2021/09/14 03:56:20;;;;;;;;;;;;;;;-142.75;100.00;77137.25;5001338;28;20785;-78
2021/09/14 03:58:45;;;;;;;;;;;;;;;-142.75;100.00;77127.41;5004651;28;19918;-80
2021/09/14 04:01:10;;;;;;;;;;;;;;;-142.75;100.00;77125.44;5000914;28;19945;-79
2021/09/14 04:06:21;;;;;;;;;;;;;;;-142.75;100.00;77137.25;5002316;28;19913;-79
2021/09/14 04:08:52;;;;;;;;;;;;;;;-142.75;100.00;77137.25;5005332;28;20342;-79
2021/09/14 04:11:18;;;;;;;;;;;;;;;-142.75;100.00;77141.19;5005398;28;19914;-78
2021/09/14 04:13:44;;;;;;;;;;;;;;;-142.75;100.00;77139.22;5006207;28;19913;-78
2021/09/14 04:16:09;;;;;;;;;;;;;;;-142.75;100.00;77151.03;5001026;28;20008;-79
2021/09/14 04:18:34;;;;;;;;;;;;;;;-142.75;100.00;77137.25;5004530;28;19921;-79
2021/09/14 04:20:59;;;;;;;;;;;;;;;-142.75;100.00;77135.28;5003913;28;19925;-78
2021/09/14 04:23:25;;;;;;;;;;;;;;;-142.75;100.00;77143.16;5005525;28;19920;-78
2021/09/14 04:25:50;;;;;;;;;;;;;;;-142.75;100.00;77141.19;5000670;28;19914;-79
2021/09/14 04:28:15;;;;;;;;;;;;;;;-142.75;100.00;77129.38;5002995;28;20283;-79
2021/09/14 04:30:40;;;;;;;;;;;;;;;-142.75;100.00;77127.41;5004038;28;19960;-79
2021/09/14 04:33:05;;;;;;;;;;;;;;;-142.75;100.00;77117.56;5003947;28;19921;-78
2021/09/14 04:35:31;;;;;;;;;;;;;;;-142.75;100.00;77117.56;5002139;28;19913;-78
2021/09/14 04:37:57;;;;;;;;;;;;;;;-142.75;100.00;77119.53;5009451;28;19913;-79
2021/09/14 04:40:22;;;;;;;;;;;;;;;-142.75;100.00;77117.56;5004027;28;20379;-78
2021/09/14 04:42:47;;;;;;;;;;;;;;;-142.75;100.00;77115.59;5005518;28;19959;-79
2021/09/14 04:45:12;;;;;;;;;;;;;;;-142.75;100.00;77123.47;5004113;28;19920;-77
2021/09/14 04:47:37;;;;;;;;;;;;;;;-142.75;100.00;77123.47;5004330;28;19968;-78
2021/09/14 04:50:03;;;;;;;;;;;;;;;-142.75;100.00;77119.53;5008191;28;19979;-78
2021/09/14 04:52:28;;;;;;;;;;;;;;;-142.75;100.00;77121.50;5002498;28;20339;-78
2021/09/14 04:54:53;;;;;;;;;;;;;;;-142.75;100.00;77121.50;5000277;28;19917;-77
2021/09/14 04:57:18;;;;;;;;;;;;;;;-142.75;100.00;77121.50;5005557;28;19921;-79
2021/09/14 04:59:44;;;;;;;;;;;;;;;-142.75;100.00;77123.47;5003836;28;19917;-79
2021/09/14 05:02:09;;;;;;;;;;;;;;;-142.75;100.00;77137.25;5004712;28;19979;-78
2021/09/14 05:04:34;;;;;;;;;;;;;;;-142.75;100.00;77137.25;5004200;28;20008;-79
2021/09/14 05:06:59;;;;;;;;;;;;;;;-142.75;100.00;77141.19;5005779;28;19985;-79
2021/09/14 05:09:24;;;;;;;;;;;;;;;-142.75;100.00;77131.34;5000979;28;19921;-80
2021/09/14 05:11:50;;;;;;;;;;;;;;;-142.75;100.00;77129.38;5001483;28;19972;-79
2021/09/14 05:14:15;;;;;;;;;;;;;;;-142.75;100.00;77127.41;5003249;28;19917;-79
2021/09/14 05:16:40;;;;;;;;;;;;;;;-142.75;100.00;77125.44;5001659;28;19961;-79
2021/09/14 05:19:08;;;;;;;;;;;;;;;-142.75;100.00;77121.50;4998705;28;20020;-80
2021/09/14 05:21:33;;;;;;;;;;;;;;;-142.75;100.00;77121.50;4999466;28;19953;-79
2021/09/14 05:23:58;;;;;;;;;;;;;;;-142.75;100.00;77129.38;5005291;28;19936;-79
2021/09/14 05:26:26;;;;;;;;;;;;;;;-142.75;100.00;77129.38;5004212;28;19920;-79
2021/09/14 05:28:51;;;;;;;;;;;;;;;-142.75;100.00;77133.31;5003100;28;19914;-78
2021/09/14 05:31:16;;;;;;;;;;;;;;;-142.75;100.00;77121.50;5004806;28;19920;-79
2021/09/14 05:33:42;;;;;;;;;;;;;;;-142.75;100.00;77113.63;5003270;28;19917;-79
2021/09/14 05:36:08;;;;;;;;;;;;;;;-142.75;100.00;77097.88;4999468;28;19961;-79
2021/09/14 05:38:33;;;;;;;;;;;;;;;-142.75;100.00;77082.13;4999023;28;19918;-79
2021/09/14 05:40:59;;;;;;;;;;;;;;;-142.75;100.00;77086.06;5002991;28;20401;-79
2021/09/14 05:43:25;;;;;;;;;;;;;;;-142.75;100.00;77078.19;5005079;28;19913;-79
2021/09/14 05:45:51;;;;;;;;;;;;;;;-142.75;100.00;77086.06;5002976;28;19917;-78
2021/09/14 05:48:16;;;;;;;;;;;;;;;-142.75;100.00;77072.28;5004564;28;19920;-79
2021/09/14 05:50:41;;;;;;;;;;;;;;;-142.75;100.00;77074.25;5005057;28;19921;-78
2021/09/14 05:53:06;;;;;;;;;;;;;;;-142.75;100.00;77046.69;5004118;28;19922;-78
2021/09/14 05:55:34;;;;;;;;;;;;;;;-142.75;100.00;77030.94;4999057;28;19913;-78
2021/09/14 05:57:59;;;;;;;;;;;;;;;-142.75;100.00;77019.13;4997187;28;20342;-79
2021/09/14 06:00:26;;;;;;;;;;;;;;;-142.75;100.00;77019.13;4999921;28;19918;-78
2021/09/14 06:02:51;;;;;;;;;;;;;;;-142.75;100.00;77027.00;4999957;28;19913;-79
2021/09/14 06:05:16;;;;;;;;;;;;;;;-142.75;100.00;77032.91;4998404;28;19919;-79
2021/09/14 06:07:41;;;;;;;;;;;;;;;-142.75;100.00;77030.94;4998629;28;19939;-79
2021/09/14 06:10:08;;;;;;;;;;;;;;;-142.75;100.00;77042.75;5005517;28;20035;-80
2021/09/14 06:12:33;;;;;;;;;;;;;;;-142.75;100.00;77042.75;5005062;28;19914;-78
2021/09/14 06:14:58;;;;;;;;;;;;;;;-142.75;100.00;77056.53;4999028;28;19920;-78
2021/09/14 06:17:24;;;;;;;;;;;;;;;-142.75;100.00;77042.75;5000781;28;19913;-79
2021/09/14 06:19:49;;;;;;;;;;;;;;;-142.75;100.00;77034.88;5000432;28;19925;-79
2021/09/14 06:22:14;;;;;;;;;;;;;;;-142.75;100.00;77038.81;5002163;28;19917;-78
2021/09/14 06:24:40;;;;;;;;;;;;;;;-142.75;100.00;77042.75;5006365;28;20363;-78
2021/09/14 06:27:05;;;;;;;;;;;;;;;-142.75;100.00;77038.81;5002264;28;20335;-78
2021/09/14 06:29:30;;;;;;;;;;;;;;;-142.75;100.00;77034.88;5004998;28;20025;-79
2021/09/14 06:31:55;;;;;;;;;;;;;;;-142.75;100.00;77027.00;5004059;28;20407;-78
2021/09/14 06:34:20;;;;;;;;;;;;;;;-142.75;100.00;76995.50;5009154;28;19913;-78
2021/09/14 06:36:46;;;;;;;;;;;;;;;-142.75;100.00;76991.56;5003580;28;19920;-77
2021/09/14 06:39:11;;;;;;;;;;;;;;;-142.75;100.00;76987.63;5000272;28;19949;-78
2021/09/14 06:41:36;;;;;;;;;;;;;;;-142.75;100.00;76967.94;5003980;28;19983;-77
2021/09/14 06:44:01;;;;;;;;;;;;;;;-142.75;100.00;76932.50;5000632;28;20386;-79
2021/09/14 06:46:27;;;;;;;;;;;;;;;-142.75;100.00;76895.09;4997632;28;19917;-77
2021/09/14 06:48:52;;;;;;;;;;;;;;;-142.75;100.00;76834.06;5007429;28;20438;-78
2021/09/14 06:51:18;;;;;;;;;;;;;;;-142.75;100.00;76786.84;5004923;28;20342;-79
2021/09/14 06:53:43;;;;;;;;;;;;;;;-142.75;98.83;76739.59;5005980;28;20446;-79
2021/09/14 06:56:08;;;;;;;;;;;;;;;-142.75;97.05;76759.28;5008975;28;19968;-78
2021/09/14 06:58:34;;;;;;;;;;;;;;;-142.75;97.43;76786.84;5001963;28;19917;-80
2021/09/14 07:00:59;;;;;;;;;;;;;;;-142.75;97.75;76745.50;5007029;28;20294;-81
2021/09/14 07:03:24;;;;;;;;;;;;;;;-142.75;96.44;76731.72;5005279;28;19913;-79
2021/09/14 07:05:49;;;;;;;;;;;;;;;-142.75;95.75;76696.28;5008359;28;19921;-78
2021/09/14 07:08:15;;;;;;;;;;;;;;;-142.75;95.41;76686.44;5004070;28;20383;-78
2021/09/14 07:10:40;;;;;;;;;;;;;;;-142.75;95.47;76731.72;5005461;28;20014;-80
2021/09/14 07:13:05;;;;;;;;;;;;;;;-142.75;95.47;76723.84;5007314;28;19914;-78
2021/09/14 07:15:30;;;;;;;;;;;;;;;-142.75;95.37;76737.63;5011503;28;19920;-78
2021/09/14 07:17:56;;;;;;;;;;;;;;;-142.75;95.58;76735.66;5009168;28;19913;-79
2021/09/14 07:20:21;;;;;;;;;;;;;;;-142.75;95.20;76680.53;5012307;28;20370;-78
2021/09/14 07:22:46;;;;;;;;;;;;;;;-142.75;93.10;76652.97;5008254;28;19917;-78
2021/09/14 07:25:12;;;;;;;;;;;;;;;-142.75;89.99;76599.81;5010090;28;20425;-78
2021/09/14 07:27:37;;;;;;;;;;;;;;;-142.75;87.32;76554.53;5006875;28;19921;-79
2021/09/14 07:30:03;;;;;;;;;;;;;;;-142.75;85.02;76499.44;5013621;28;19952;-77
2021/09/14 07:32:28;;;;;;;;;;;;;;;-142.75;83.06;76456.13;5006780;28;19920;-78
2021/09/14 07:34:53;;;;;;;;;;;;;;;-142.75;82.31;76481.72;5010167;28;20004;-78
2021/09/14 07:37:18;;;;;;;;;;;;;;;-142.75;81.10;76432.50;5005257;28;20264;-78
2021/09/14 07:39:43;;;;;;;;;;;;;;;-142.75;80.40;76450.22;5003619;28;19928;-78
2021/09/14 07:42:09;;;;;;;;;;;;;;;-142.75;81.78;76365.56;5003605;28;19948;-81
2021/09/14 07:44:34;;;;;;;;;;;;;;;-142.75;76.54;76267.16;5011600;28;19922;-80
2021/09/14 07:46:59;;;;;;;;;;;;;;;-142.75;74.99;76296.69;5006338;28;19917;-78
2021/09/14 07:49:24;;;;;;;;;;;;;;;-142.75;73.91;76233.69;4998180;28;19920;-79
2021/09/14 07:51:50;;;;;;;;;;;;;;;-142.75;72.21;76192.38;4992960;28;19917;-79
2021/09/14 07:54:15;;;;;;;;;;;;;;;-142.75;71.24;76162.84;4994672;28;19929;-79
2021/09/14 07:56:40;;;;;;;;;;;;;;;-142.75;71.50;76160.88;4992667;28;19917;-78
2021/09/14 07:59:05;;;;;;;;;;;;;;;-142.75;69.85;76133.31;5004621;28;20372;-78
2021/09/14 08:01:31;;;;;;;;;;;;;;;-142.75;69.32;76168.75;5010817;28;19921;-79
2021/09/14 08:03:56;;;;;;;;;;;;;;;-142.75;69.44;76147.09;5001310;28;19914;-77
2021/09/14 08:06:21;;;;;;;;;;;;;;;-142.75;68.41;76141.19;5012964;28;19928;-77
2021/09/14 08:08:46;;;;;;;;;;;;;;;-142.75;69.07;76111.66;5003959;28;19914;-77
2021/09/14 08:11:12;;;;;;;;;;;;;;;-142.75;67.66;76160.88;4996919;28;19949;-78
2021/09/14 08:13:37;;;;;;;;;;;;;;;-142.75;70.48;76227.78;5011941;28;19913;-79
2021/09/14 08:16:03;;;;;;;;;;;;;;;-142.75;70.98;76172.69;5005985;28;19940;-77
2021/09/14 08:18:28;;;;;;;;;;;;;;;-142.75;70.58;76143.16;5007408;28;19921;-77
2021/09/14 08:20:54;;;;;;;;;;;;;;;-142.75;69.69;76180.56;5007044;28;20004;-78
2021/09/14 08:23:19;;;;;;;;;;;;;;;-142.75;70.80;76196.31;4997236;28;20097;-79
2021/09/14 08:25:45;;;;;;;;;;;;;;;-142.75;70.17;76176.63;5006058;28;19914;-78
2021/09/14 08:28:10;;;;;;;;;;;;;;;-142.75;71.22;76180.56;4995826;28;19968;-78
2021/09/14 08:30:35;;;;;;;;;;;;;;;-142.75;73.25;76158.91;5007285;28;20295;-79
2021/09/14 08:33:00;;;;;;;;;;;;;;;-142.75;68.96;76158.91;5002332;28;20303;-78
2021/09/14 08:35:25;;;;;;;;;;;;;;;-142.75;70.46;76188.44;5002053;28;20379;-78
2021/09/14 08:37:51;;;;;;;;;;;;;;;-142.75;72.79;76156.94;5006416;28;20405;-79
2021/09/14 08:40:16;;;;;;;;;;;;;;;-142.75;67.73;76015.22;5011408;28;19999;-78
2021/09/14 08:42:41;;;;;;;;;;;;;;;-142.75;65.58;75975.84;5002990;28;19948;-78
2021/09/14 08:45:08;;;;;;;;;;;;;;;-142.75;65.58;76023.09;5002694;28;19914;-79
2021/09/14 08:47:34;;;;;;;;;;;;;;;-142.75;68.31;76145.13;5002831;28;19920;-78
2021/09/14 08:49:59;;;;;;;;;;;;;;;-142.75;69.90;76121.50;5003667;28;19913;-78
2021/09/14 08:52:24;;;;;;;;;;;;;;;-142.75;68.55;76095.91;5000276;28;19921;-79
2021/09/14 08:54:49;;;;;;;;;;;;;;;-142.75;66.77;76013.25;5003143;28;19960;-78
2021/09/14 08:57:15;;;;;;;;;;;;;;;-142.75;64.94;75952.25;5008425;28;19925;-80
2021/09/14 08:59:44;;;;;;;;;;;;;;;-142.75;63.58;75873.50;5005385;28;19922;-78
2021/09/14 09:02:09;;;;;;;;;;;;;;;-142.75;61.81;75816.44;5000951;28;19913;-78
2021/09/14 09:04:35;;;;;;;;;;;;;;;-142.75;60.27;75822.34;5004869;28;19967;-79
2021/09/14 09:07:00;;;;;;;;;;;;;;;-142.75;60.99;75798.72;5006563;28;19921;-79
2021/09/14 09:09:29;;;;;;;;;;;;;;;-142.75;58.35;75739.69;5001694;28;19921;-78
2021/09/14 09:11:55;;;;;;;;;;;;;;;-142.75;59.33;75721.97;5002210;28;19921;-78
2021/09/14 09:14:31;;;;;;;;;;;;;;;-142.75;56.92;75702.28;5004777;28;19917;-78
2021/09/14 09:17:03;;;;;;;;;;;;;;;-142.75;57.35;75727.88;5003551;28;19921;-78
2021/09/14 09:19:28;;;;;;;;;;;;;;;-142.75;58.86;75818.41;4996737;28;19967;-79
2021/09/14 09:21:57;;;;;;;;;;;;;;;-142.75;58.16;75731.81;4999047;28;20003;-78
2021/09/14 09:24:22;;;;;;;;;;;;;;;-142.75;58.76;75723.94;5004509;28;20415;-78
2021/09/14 09:26:47;;;;;;;;;;;;;;;-142.75;56.39;75607.81;4998911;28;19964;-78
2021/09/14 09:29:19;;;;;;;;;;;;;;;-142.75;55.91;75580.28;5008247;28;19913;-77
2021/09/14 09:31:46;;;;;;;;;;;;;;;-142.75;55.29;75546.81;5002032;28;20380;-79
2021/09/14 09:34:12;;;;;;;;;;;;;;;-142.75;55.15;75550.75;5004304;28;19921;-80
2021/09/14 09:36:41;;;;;;;;;;;;;;;-142.75;56.92;75617.66;5001046;28;19967;-79
2021/09/14 09:39:09;;;;;;;;;;;;;;;-142.75;56.70;75647.19;5007944;28;20360;-79
2021/09/14 09:41:38;;;;;;;;;;;;;;;-142.75;58.19;75731.81;5004945;28;19913;-78
2021/09/14 09:44:04;;;;;;;;;;;;;;;-142.75;59.74;75731.81;5005856;28;19928;-77
2021/09/14 09:46:29;;;;;;;;;;;;;;;-142.75;57.04;75680.63;4996404;28;20000;-78
2021/09/14 09:48:55;;;;;;;;;;;;;;;-142.75;56.13;75584.22;5001885;28;19968;-79
2021/09/14 09:51:20;;;;;;;;;;;;;;;-142.75;55.23;75594.06;5006213;28;19918;-78
2021/09/14 09:53:46;;;;;;;;;;;;;;;-142.75;55.08;75594.06;5005698;28;19964;-78
2021/09/14 09:56:11;;;;;;;;;;;;;;;-142.75;55.57;75655.06;5005360;28;20357;-80
2021/09/14 09:58:37;;;;;;;;;;;;;;;-142.75;57.34;75674.72;5005175;28;19937;-82
2021/09/14 10:01:12;;;;;;;;;;;;;;;-142.75;55.57;75601.91;5004421;28;20016;-78
2021/09/14 10:03:44;;;;;;;;;;;;;;;-142.75;55.85;75531.06;5003308;28;20402;-80
2021/09/14 10:06:10;;;;;;;;;;;;;;;-142.75;53.89;75497.63;5003486;28;20359;-79
2021/09/14 10:08:35;;;;;;;;;;;;;;;-142.75;52.59;75487.78;5003562;28;19941;-79
2021/09/14 10:11:00;;;;;;;;;;;;;;;-142.75;53.30;75513.38;4998919;28;19913;-78
2021/09/14 10:13:33;;;;;;;;;;;;;;;-142.75;53.71;75536.97;5001078;28;20004;-79
2021/09/14 10:15:58;;;;;;;;;;;;;;;-142.75;54.63;75531.06;5000267;28;20322;-79
2021/09/14 10:18:28;;;;;;;;;;;;;;;-142.75;52.75;75464.16;5000101;28;19913;-78
2021/09/14 10:20:53;;;;;;;;;;;;;;;-142.75;52.85;75499.59;5002244;28;19917;-78
2021/09/14 10:23:19;;;;;;;;;;;;;;;-142.75;52.70;75535.00;5003675;28;20295;-78
2021/09/14 10:25:46;;;;;;;;;;;;;;;-142.75;53.44;75531.06;5008042;28;19952;-78
2021/09/14 10:28:13;;;;;;;;;;;;;;;-142.75;52.39;75479.91;5005968;28;20447;-79
2021/09/14 10:30:39;;;;;;;;;;;;;;;-142.75;52.28;75452.34;5001205;28;19913;-78
2021/09/14 10:33:05;;;;;;;;;;;;;;;-142.75;51.87;75472.03;5000948;28;19914;-79
2021/09/14 10:35:33;;;;;;;;;;;;;;;-142.75;51.54;75403.16;5003311;28;19926;-77
2021/09/14 10:38:06;;;;;;;;;;;;;;;-142.75;50.93;75361.84;4999514;28;20575;-78
2021/09/14 10:40:58;;;;;;;;;;;;;;;-142.75;49.60;75385.44;4998793;28;19972;-78
2021/09/14 10:43:23;;;;;;;;;;;;;;;-142.75;51.54;75472.03;4997359;28;19913;-78
2021/09/14 10:45:48;;;;;;;;;;;;;;;-142.75;52.52;75515.31;5000420;28;20056;-81
2021/09/14 10:48:21;;;;;;;;;;;;;;;-142.75;52.58;75424.81;5004235;28;19914;-78
2021/09/14 10:50:46;;;;;;;;;;;;;;;-142.75;52.02;75428.75;5001770;28;19913;-79
2021/09/14 10:53:20;;;;;;;;;;;;;;;-142.75;53.30;75450.38;5003800;28;19914;-79
2021/09/14 10:55:50;;;;;;;;;;;;;;;-142.75;52.30;75446.44;5005051;28;20331;-79
2021/09/14 10:58:15;;;;;;;;;;;;;;;-142.75;52.69;75450.38;5002672;28;19924;-77
2021/09/14 11:00:42;;;;;;;;;;;;;;;-142.75;53.01;75424.81;5001311;28;20004;-78
2021/09/14 11:03:08;;;;;;;;;;;;;;;-142.75;51.87;75420.88;5007532;28;19948;-79
2021/09/14 11:05:36;;;;;;;;;;;;;;;-142.75;51.99;75444.47;5001550;28;19914;-78
2021/09/14 11:08:01;;;;;;;;;;;;;;;-142.75;51.52;75383.47;5003380;28;21364;-80
2021/09/14 11:10:38;;;;;;;;;;;;;;;-142.75;50.87;75361.84;5003586;28;19913;-78
2021/09/14 11:13:04;;;;;;;;;;;;;;;-142.75;52.68;75416.94;4999315;28;19920;-78
2021/09/14 11:15:29;;;;;;;;;;;;;;;-142.75;51.78;75460.22;5001803;28;19914;-78
2021/09/14 11:17:54;;;;;;;;;;;;;;;-142.75;51.75;75420.88;5007126;28;19914;-78
2021/09/14 11:20:20;;;;;;;;;;;;;;;-142.75;52.25;75426.78;5001304;28;19925;-78
2021/09/14 11:22:47;;;;;;;;;;;;;;;-142.75;51.49;75363.78;4999920;28;19920;-78
2021/09/14 11:25:18;;;;;;;;;;;;;;;-142.75;51.50;75367.72;4998831;28;19917;-79
2021/09/14 11:28:17;;;;;;;;;;;;;;;-142.75;52.48;75475.97;5003654;28;20327;-79
2021/09/14 11:30:51;;;;;;;;;;;;;;;-142.75;54.32;75531.06;4985985;28;19925;-78
2021/09/14 11:33:16;;;;;;;;;;;;;;;-142.75;55.24;75552.72;5000892;28;20063;-80
2021/09/14 11:35:41;;;;;;;;;;;;;;;-142.75;55.64;75592.09;5004925;28;20391;-77
2021/09/14 11:38:07;;;;;;;;;;;;;;;-142.75;56.01;75556.66;5005621;28;20379;-79
2021/09/14 11:40:34;;;;;;;;;;;;;;;-142.75;56.06;75605.84;5000254;28;19917;-78
2021/09/14 11:43:01;;;;;;;;;;;;;;;-142.75;55.89;75609.78;5011101;28;20455;-79
2021/09/14 11:45:27;;;;;;;;;;;;;;;-142.75;56.33;75558.63;5006212;28;19913;-79
2021/09/14 11:47:52;;;;;;;;;;;;;;;-142.75;55.72;75558.63;5005919;28;20008;-78
2021/09/14 11:50:25;;;;;;;;;;;;;;;-142.75;55.78;75590.13;5002491;28;19956;-77
2021/09/14 11:53:13;;;;;;;;;;;;;;;-142.75;56.57;75601.91;5005911;28;19971;-77
2021/09/14 11:55:39;;;;;;;;;;;;;;;-142.75;57.45;75599.94;4998042;28;19913;-78
2021/09/14 11:58:05;;;;;;;;;;;;;;;-142.75;57.99;75607.81;5002418;28;20338;-78
2021/09/14 12:00:38;;;;;;;;;;;;;;;-142.75;58.07;75597.97;5004240;28;19922;-78
2021/09/14 12:03:03;;;;;;;;;;;;;;;-142.75;59.13;75590.13;4999418;28;19914;-79
2021/09/14 12:05:28;;;;;;;;;;;;;;;-142.75;57.78;75586.19;5007347;28;20013;-79
2021/09/14 12:07:55;;;;;;;;;;;;;;;-142.75;57.72;75584.22;5007201;28;20003;-78
2021/09/14 12:10:20;;;;;;;;;;;;;;;-142.75;58.88;75586.19;5011684;28;20450;-81
2021/09/14 12:12:55;;;;;;;;;;;;;;;-142.75;58.51;75564.53;5000447;28;19956;-79
2021/09/14 12:15:21;;;;;;;;;;;;;;;-142.75;58.97;75605.84;5007564;28;19921;-78
2021/09/14 12:17:47;;;;;;;;;;;;;;;-142.75;59.16;75633.41;5006558;28;19914;-78
2021/09/14 12:20:12;;;;;;;;;;;;;;;-142.75;60.77;75637.34;5003382;28;19918;-78
2021/09/14 12:22:37;;;;;;;;;;;;;;;-142.75;59.72;75629.47;5004973;28;19914;-78
2021/09/14 12:25:03;;;;;;;;;;;;;;;-142.75;60.22;75588.16;5000182;28;19913;-79
2021/09/14 12:27:29;;;;;;;;;;;;;;;-142.75;59.82;75554.69;5001577;28;20016;-78
2021/09/14 12:29:55;;;;;;;;;;;;;;;-142.75;58.23;75592.09;4999710;28;20371;-78
2021/09/14 12:32:20;;;;;;;;;;;;;;;-142.75;58.39;75653.09;4997285;28;20000;-78
2021/09/14 12:34:45;;;;;;;;;;;;;;;-142.75;59.48;75657.03;5000058;28;19917;-78
2021/09/14 12:37:10;;;;;;;;;;;;;;;-142.75;61.65;75682.59;4996648;28;20000;-80
2021/09/14 12:39:35;;;;;;;;;;;;;;;-142.75;61.87;75668.84;5005789;28;20004;-77
2021/09/14 12:42:00;;;;;;;;;;;;;;;-142.75;61.81;75672.78;5004869;28;19935;-77
2021/09/14 12:44:26;;;;;;;;;;;;;;;-142.75;62.12;75670.81;4999959;28;19914;-77
2021/09/14 12:46:55;;;;;;;;;;;;;;;-142.75;62.18;75676.69;5001241;28;20371;-78
2021/09/14 12:49:20;;;;;;;;;;;;;;;-142.75;62.49;75696.38;5002237;28;19960;-79
2021/09/14 12:51:46;;;;;;;;;;;;;;;-142.75;63.64;75712.13;5003523;28;20603;-80
2021/09/14 12:54:11;;;;;;;;;;;;;;;-142.75;62.63;75696.38;5002880;28;20303;-79
2021/09/14 12:56:36;;;;;;;;;;;;;;;-142.75;63.38;75694.41;5002803;28;19913;-80
2021/09/14 12:59:03;;;;;;;;;;;;;;;-142.75;60.76;75678.66;4996603;28;19921;-81
2021/09/14 13:01:28;;;;;;;;;;;;;;;-142.75;62.84;75680.63;5002560;28;19920;-79
2021/09/14 13:03:53;;;;;;;;;;;;;;;-142.75;63.29;75678.66;4996112;28;20354;-81
2021/09/14 13:06:18;;;;;;;;;;;;;;;-142.75;62.34;75692.44;5008546;28;20371;-80
2021/09/14 13:08:43;;;;;;;;;;;;;;;-142.75;62.40;75666.88;5004416;28;19944;-79
2021/09/14 13:11:09;;;;;;;;;;;;;;;-142.75;63.29;75664.91;5002421;28;19948;-81
2021/09/14 13:16:18;;;;;;;;;;;;;;;-142.75;64.16;75704.25;5004871;28;19933;-81